createdAt,value
2018-02-15T00:01:53.915Z,13.05
2018-02-15T00:04:21.347Z,13.48
2018-02-15T00:06:48.767Z,14.75
2018-02-15T00:09:16.197Z,13.90
2018-02-15T00:11:43.628Z,14.95
2018-02-15T00:14:11.055Z,13.18
2018-02-15T00:16:38.552Z,14.90
2018-02-15T00:19:05.988Z,14.25
2018-02-15T00:21:34.187Z,14.68
2018-02-15T00:24:01.615Z,14.90
2018-02-15T00:26:29.048Z,14.02
2018-02-15T00:28:56.480Z,13.48
2018-02-15T00:31:23.903Z,14.70
2018-02-15T00:33:51.328Z,14.10
2018-02-15T00:36:18.760Z,14.50
2018-02-15T00:38:46.184Z,15.20
2018-02-15T00:41:14.380Z,15.60
2018-02-15T00:43:41.809Z,15.95
2018-02-15T00:46:09.251Z,15.38
2018-02-15T00:48:36.679Z,15.38
2018-02-15T00:51:04.111Z,15.77
2018-02-15T00:53:31.527Z,15.77
2018-02-15T00:55:59.732Z,16.35
2018-02-15T00:58:27.161Z,14.13
2018-02-15T01:00:54.591Z,15.88
2018-02-15T01:03:22.789Z,14.15
2018-02-15T01:05:50.268Z,14.87
2018-02-15T01:08:17.717Z,14.40
2018-02-15T01:10:45.152Z,13.95
2018-02-15T01:13:12.772Z,17.85
2018-02-15T01:15:40.207Z,15.95
2018-02-15T01:18:08.549Z,15.40
2018-02-15T01:20:35.988Z,15.52
2018-02-15T01:23:04.171Z,14.75
2018-02-15T01:25:31.591Z,17.08
2018-02-15T01:27:59.028Z,14.87
2018-02-15T01:30:26.461Z,16.52
2018-02-15T01:32:54.651Z,15.00
2018-02-15T01:35:22.086Z,14.25
2018-02-15T01:37:49.522Z,14.32
2018-02-15T01:40:16.952Z,14.00
2018-02-15T01:42:44.379Z,15.27
2018-02-15T01:45:11.819Z,14.57
2018-02-15T01:47:39.260Z,14.30
2018-02-15T01:50:06.671Z,13.40
2018-02-15T01:52:34.876Z,14.27
2018-02-15T01:55:02.300Z,13.98
2018-02-15T01:57:30.552Z,13.00
2018-02-15T01:59:57.979Z,14.48
2018-02-15T02:02:25.423Z,16.25
2018-02-15T02:04:52.844Z,14.80
2018-02-15T02:07:20.263Z,15.13
2018-02-15T02:09:47.700Z,15.13
2018-02-15T02:12:15.142Z,16.10
2018-02-15T02:14:42.572Z,13.80
2018-02-15T02:17:09.992Z,14.15
2018-02-15T02:19:37.427Z,16.23
2018-02-15T02:22:04.920Z,14.73
2018-02-15T02:24:32.354Z,16.20
2018-02-15T02:26:59.793Z,14.63
2018-02-15T02:29:27.211Z,13.82
2018-02-15T02:31:55.416Z,14.55
2018-02-15T02:34:22.871Z,14.63
2018-02-15T02:36:50.304Z,15.02
2018-02-15T02:39:17.723Z,17.35
2018-02-15T02:41:45.160Z,17.75
2018-02-15T02:44:12.571Z,17.33
2018-02-15T02:46:40.008Z,18.23
2018-02-15T02:49:07.427Z,15.52
2018-02-15T02:51:34.863Z,16.98
2018-02-15T02:54:02.284Z,18.37
2018-02-15T02:56:29.720Z,16.17
2018-02-15T02:58:57.142Z,16.87
2018-02-15T03:01:24.584Z,16.00
2018-02-15T03:03:52.911Z,17.73
2018-02-15T03:06:20.352Z,16.75
2018-02-15T03:08:47.780Z,17.33
2018-02-15T03:11:15.211Z,16.98
2018-02-15T03:13:42.652Z,17.60
2018-02-15T03:16:10.846Z,16.33
2018-02-15T03:18:38.276Z,16.12
2018-02-15T03:21:05.700Z,16.27
2018-02-15T03:23:33.131Z,18.73
2018-02-15T03:26:00.559Z,18.27
2018-02-15T03:28:28.029Z,17.23
2018-02-15T03:30:56.228Z,16.95
2018-02-15T03:33:23.644Z,16.77
2018-02-15T03:35:51.064Z,18.60
2018-02-15T03:38:18.496Z,15.90
2018-02-15T03:40:45.923Z,15.73
2018-02-15T03:43:13.351Z,18.02
2018-02-15T03:45:41.549Z,17.92
2018-02-15T03:48:08.980Z,16.30
2018-02-15T03:50:36.399Z,15.52
2018-02-15T03:53:03.835Z,15.07
2018-02-15T03:55:31.325Z,15.93
2018-02-15T03:57:58.760Z,14.93
2018-02-15T04:00:26.202Z,15.95
2018-02-15T04:02:53.614Z,16.30
2018-02-15T04:05:21.816Z,15.48
2018-02-15T04:07:49.230Z,15.93
2018-02-15T04:10:16.660Z,14.20
2018-02-15T04:12:44.088Z,13.98
2018-02-15T04:15:11.519Z,14.40
2018-02-15T04:17:39.744Z,14.32
2018-02-15T04:20:07.152Z,14.55
2018-02-15T04:22:34.575Z,12.10
2018-02-15T04:25:02.008Z,12.85
2018-02-15T04:27:29.436Z,13.35
2018-02-15T04:29:56.872Z,12.82
2018-02-15T04:32:25.078Z,12.32
2018-02-15T04:34:52.567Z,12.35
2018-02-15T04:37:20.005Z,13.70
2018-02-15T04:39:47.429Z,12.10
2018-02-15T04:42:14.867Z,13.07
2018-02-15T04:44:42.346Z,12.70
2018-02-15T04:47:09.788Z,11.55
2018-02-15T04:49:37.207Z,12.63
2018-02-15T04:52:04.638Z,11.52
2018-02-15T04:54:32.066Z,11.55
2018-02-15T04:56:59.499Z,11.98
2018-02-15T04:59:27.703Z,10.98
2018-02-15T05:01:55.132Z,11.05
2018-02-15T05:04:22.547Z,10.00
2018-02-15T05:06:49.983Z,11.30
2018-02-15T05:09:17.408Z,11.57
2018-02-15T05:11:44.840Z,10.95
2018-02-15T05:14:12.276Z,10.80
2018-02-15T05:16:39.711Z,11.27
2018-02-15T05:19:07.136Z,10.50
2018-02-15T05:21:34.560Z,9.70
2018-02-15T05:24:01.996Z,12.02
2018-02-15T05:26:29.607Z,10.77
2018-02-15T05:28:57.040Z,11.25
2018-02-15T05:31:25.232Z,10.23
2018-02-15T05:33:52.711Z,12.05
2018-02-15T05:36:20.120Z,10.30
2018-02-15T05:38:47.547Z,11.45
2018-02-15T05:41:14.973Z,12.00
2018-02-15T05:43:42.395Z,11.00
2018-02-15T05:46:10.646Z,12.85
2018-02-15T05:48:38.033Z,11.07
2018-02-15T05:51:06.236Z,15.15
2018-02-15T05:53:33.672Z,11.40
2018-02-15T05:56:01.109Z,12.70
2018-02-15T05:58:28.555Z,11.38
2018-02-15T06:00:55.984Z,12.05
2018-02-15T06:03:23.412Z,11.75
2018-02-15T06:05:50.852Z,10.82
2018-02-15T06:08:18.267Z,10.70
2018-02-15T06:10:45.708Z,10.90
2018-02-15T06:13:13.139Z,11.38
2018-02-15T06:15:40.595Z,11.45
2018-02-15T06:18:08.015Z,10.40
2018-02-15T06:20:36.220Z,10.20
2018-02-15T06:23:03.688Z,13.40
2018-02-15T06:25:31.105Z,13.95
2018-02-15T06:27:58.543Z,10.85
2018-02-15T06:30:25.979Z,11.43
2018-02-15T06:32:53.411Z,10.48
2018-02-15T06:35:20.876Z,10.45
2018-02-15T06:37:48.312Z,10.60
2018-02-15T06:40:15.744Z,13.23
2018-02-15T06:42:43.948Z,11.55
2018-02-15T06:45:11.375Z,11.68
2018-02-15T06:47:38.811Z,12.25
2018-02-15T06:50:07.025Z,12.35
2018-02-15T06:52:34.654Z,11.88
2018-02-15T06:55:02.108Z,12.63
2018-02-15T06:57:29.531Z,13.70
2018-02-15T06:59:57.269Z,14.45
2018-02-15T07:02:24.680Z,11.98
2018-02-15T07:04:52.104Z,12.40
2018-02-15T07:07:19.533Z,14.90
2018-02-15T07:09:47.149Z,12.95
2018-02-15T07:12:15.327Z,13.82
2018-02-15T07:14:42.768Z,11.73
2018-02-15T07:17:10.192Z,13.48
2018-02-15T07:19:37.644Z,13.20
2018-02-15T07:22:05.071Z,12.82
2018-02-15T07:24:32.500Z,13.98
2018-02-15T07:26:59.927Z,12.63
2018-02-15T07:29:27.357Z,12.52
2018-02-15T07:31:54.829Z,14.35
2018-02-15T07:34:22.266Z,13.15
2018-02-15T07:36:49.718Z,14.25
2018-02-15T07:39:17.157Z,13.35
2018-02-15T07:41:44.592Z,13.93
2018-02-15T07:44:12.791Z,13.23
2018-02-15T07:46:40.242Z,12.95
2018-02-15T07:49:07.667Z,12.65
2018-02-15T07:51:35.095Z,13.57
2018-02-15T07:54:02.531Z,12.65
2018-02-15T07:56:29.967Z,13.18
2018-02-15T07:58:57.399Z,13.40
2018-02-15T08:01:24.831Z,13.23
2018-02-15T08:03:52.249Z,13.27
2018-02-15T08:06:19.680Z,12.00
2018-02-15T08:08:47.121Z,13.60
2018-02-15T08:11:14.544Z,12.07
2018-02-15T08:13:41.994Z,13.50
2018-02-15T08:16:09.411Z,12.45
2018-02-15T08:18:36.843Z,12.15
2018-02-15T08:21:04.270Z,12.82
2018-02-15T08:23:31.713Z,11.70
2018-02-15T08:25:59.135Z,11.63
2018-02-15T08:28:26.620Z,13.55
2018-02-15T08:30:54.044Z,12.10
2018-02-15T08:33:21.476Z,12.25
2018-02-15T08:35:48.909Z,13.45
2018-02-15T08:38:16.346Z,12.37
2018-02-15T08:40:43.789Z,13.73
2018-02-15T08:43:11.211Z,13.68
2018-02-15T08:45:38.658Z,12.73
2018-02-15T08:48:06.092Z,13.35
2018-02-15T08:50:33.534Z,12.75
2018-02-15T08:53:00.953Z,14.32
2018-02-15T08:55:28.379Z,10.60
2018-02-15T08:57:55.803Z,11.20
2018-02-15T09:00:23.235Z,12.80
2018-02-15T09:02:50.657Z,12.35
2018-02-15T09:05:18.856Z,11.30
2018-02-15T09:07:46.279Z,13.07
2018-02-15T09:10:13.711Z,12.27
2018-02-15T09:12:41.136Z,13.20
2018-02-15T09:15:08.589Z,12.55
2018-02-15T09:17:35.996Z,12.60
2018-02-15T09:20:04.183Z,12.68
2018-02-15T09:22:31.620Z,11.75
2018-02-15T09:24:59.048Z,12.80
2018-02-15T09:27:26.476Z,12.02
2018-02-15T09:29:53.904Z,11.82
2018-02-15T09:32:22.108Z,10.40
2018-02-15T09:34:49.535Z,12.45
2018-02-15T09:37:16.972Z,11.30
2018-02-15T09:39:44.391Z,10.88
2018-02-15T09:42:11.814Z,11.73
2018-02-15T09:44:39.246Z,11.73
2018-02-15T09:47:07.452Z,12.52
2018-02-15T09:49:34.870Z,11.93
2018-02-15T09:52:02.297Z,12.98
2018-02-15T09:54:29.732Z,12.07
2018-02-15T09:56:57.147Z,12.52
2018-02-15T09:59:25.334Z,11.55
2018-02-15T10:01:52.757Z,13.10
2018-02-15T10:04:20.194Z,13.32
2018-02-15T10:06:47.631Z,14.43
2018-02-15T10:09:15.057Z,14.40
2018-02-15T10:11:42.488Z,14.10
2018-02-15T10:14:09.936Z,13.90
2018-02-15T10:16:37.356Z,13.88
2018-02-15T10:19:04.788Z,13.62
2018-02-15T10:21:32.214Z,15.05
2018-02-15T10:23:59.631Z,14.25
2018-02-15T10:26:27.063Z,14.55
2018-02-15T10:28:54.484Z,14.07
2018-02-15T10:31:21.922Z,13.80
2018-02-15T10:33:49.348Z,12.45
2018-02-15T10:36:16.784Z,13.17
2018-02-15T10:38:44.203Z,13.30
2018-02-15T10:41:12.408Z,12.97
2018-02-15T10:43:39.832Z,12.43
2018-02-15T10:46:07.264Z,11.70
2018-02-15T10:48:34.725Z,14.73
2018-02-15T10:51:02.124Z,13.00
2018-02-15T10:53:29.555Z,15.43
2018-02-15T10:55:57.743Z,14.10
2018-02-15T10:58:25.216Z,13.27
2018-02-15T11:00:58.164Z,14.43
2018-02-15T11:03:30.418Z,13.75
2018-02-15T11:06:00.771Z,13.90
2018-02-15T11:08:28.207Z,14.32
2018-02-15T11:10:55.639Z,14.38
2018-02-15T11:13:23.174Z,13.15
2018-02-15T11:15:50.648Z,14.80
2018-02-15T11:18:18.288Z,12.88
2018-02-15T11:20:45.760Z,14.00
2018-02-15T11:23:13.193Z,14.20
2018-02-15T11:25:40.621Z,14.20
2018-02-15T11:28:08.054Z,14.63
2018-02-15T11:30:35.487Z,15.57
2018-02-15T11:33:02.912Z,14.93
2018-02-15T11:35:30.395Z,14.52
2018-02-15T11:37:57.798Z,14.27
2018-02-15T11:40:25.240Z,15.10
2018-02-15T11:42:52.661Z,16.08
2018-02-15T11:45:20.510Z,15.23
2018-02-15T11:47:47.969Z,17.75
2018-02-15T11:50:16.108Z,13.95
2018-02-15T11:52:44.372Z,15.50
2018-02-15T11:55:11.817Z,15.80
2018-02-15T11:57:39.276Z,15.65
2018-02-15T12:00:06.759Z,16.23
2018-02-15T12:02:34.363Z,16.12
2018-02-15T12:05:01.932Z,18.00
2018-02-15T12:07:29.372Z,15.10
2018-02-15T12:09:56.803Z,14.13
2018-02-15T12:12:24.267Z,15.73
2018-02-15T12:14:51.745Z,14.30
2018-02-15T12:17:19.173Z,14.63
2018-02-15T12:19:46.595Z,13.93
2018-02-15T12:22:14.024Z,13.20
2018-02-15T12:24:41.459Z,14.50
2018-02-15T12:27:08.956Z,13.80
2018-02-15T12:29:36.380Z,14.02
2018-02-15T12:32:03.829Z,15.68
2018-02-15T12:34:31.239Z,14.30
2018-02-15T12:36:59.444Z,14.48
2018-02-15T12:39:26.863Z,13.25
2018-02-15T12:41:54.319Z,15.77
2018-02-15T12:44:21.755Z,16.15
2018-02-15T12:46:49.204Z,14.15
2018-02-15T12:49:16.647Z,14.80
2018-02-15T12:51:44.075Z,13.65
2018-02-15T12:54:11.508Z,13.27
2018-02-15T12:56:39.695Z,15.30
2018-02-15T12:59:07.145Z,15.38
2018-02-15T13:01:34.564Z,15.05
2018-02-15T13:04:02.024Z,14.00
2018-02-15T13:06:29.482Z,15.88
2018-02-15T13:08:56.936Z,13.80
2018-02-15T13:11:24.364Z,14.35
2018-02-15T13:13:51.788Z,14.07
2018-02-15T13:16:30.980Z,14.50
2018-02-15T13:19:10.239Z,13.90
2018-02-15T13:21:37.664Z,16.10
2018-02-15T13:24:05.088Z,13.25
2018-02-15T13:26:32.510Z,14.90
2018-02-15T13:28:59.936Z,14.45
2018-02-15T13:31:27.396Z,15.85
2018-02-15T13:33:54.824Z,15.17
2018-02-15T13:36:23.022Z,15.73
2018-02-15T13:38:50.471Z,16.37
2018-02-15T13:41:17.890Z,16.83
2018-02-15T13:43:45.314Z,18.67
2018-02-15T13:46:12.751Z,14.90
2018-02-15T13:48:40.180Z,15.80
2018-02-15T13:51:07.619Z,18.85
2018-02-15T13:53:35.055Z,16.58
2018-02-15T13:56:02.479Z,16.52
2018-02-15T13:58:30.036Z,16.20
2018-02-15T14:00:57.472Z,17.30
2018-02-15T14:03:24.896Z,17.00
2018-02-15T14:05:52.338Z,16.37
2018-02-15T14:08:19.777Z,17.40
2018-02-15T14:10:47.207Z,19.02
2018-02-15T14:13:14.652Z,18.30
2018-02-15T14:15:42.049Z,17.50
2018-02-15T14:18:09.488Z,21.40
2018-02-15T14:20:36.902Z,17.08
2018-02-15T14:23:04.328Z,19.55
2018-02-15T14:25:31.747Z,19.37
2018-02-15T14:27:59.183Z,17.45
2018-02-15T14:30:26.615Z,18.15
2018-02-15T14:32:54.048Z,18.42
2018-02-15T14:35:21.471Z,20.05
2018-02-15T14:37:48.903Z,19.95
2018-02-15T14:40:16.479Z,20.00
2018-02-15T14:42:43.964Z,19.40
2018-02-15T14:45:11.447Z,23.23
2018-02-15T14:47:38.855Z,20.50
2018-02-15T14:50:06.292Z,20.62
2018-02-15T14:52:33.718Z,21.90
2018-02-15T14:55:02.420Z,22.15
2018-02-15T14:57:29.846Z,20.50
2018-02-15T14:59:57.286Z,20.65
2018-02-15T15:02:25.491Z,20.00
2018-02-15T15:04:52.979Z,24.60
2018-02-15T15:07:20.416Z,23.02
2018-02-15T15:09:48.767Z,23.02
2018-02-15T15:12:16.196Z,22.85
2018-02-15T15:14:43.623Z,22.45
2018-02-15T15:17:11.064Z,21.62
2018-02-15T15:19:39.278Z,22.23
2018-02-15T15:22:07.408Z,22.37
2018-02-15T15:24:34.856Z,22.25
2018-02-15T15:27:02.290Z,21.30
2018-02-15T15:29:29.947Z,22.35
2018-02-15T15:31:57.407Z,20.45
2018-02-15T15:34:24.838Z,22.37
2018-02-15T15:36:52.274Z,24.42
2018-02-15T15:39:19.693Z,18.80
2018-02-15T15:41:47.196Z,19.05
2018-02-15T15:44:14.615Z,19.35
2018-02-15T15:46:42.043Z,19.98
2018-02-15T15:49:09.467Z,21.95
2018-02-15T15:51:37.667Z,21.52
2018-02-15T15:54:05.106Z,21.62
2018-02-15T15:56:33.113Z,21.17
2018-02-15T15:59:00.540Z,19.85
2018-02-15T16:01:27.969Z,21.20
2018-02-15T16:03:55.462Z,20.08
2018-02-15T16:06:22.900Z,22.62
2018-02-15T16:08:51.088Z,21.35
2018-02-15T16:11:18.527Z,20.75
2018-02-15T16:13:47.501Z,21.00
2018-02-15T16:16:14.961Z,23.67
2018-02-15T16:18:42.391Z,24.85
2018-02-15T16:21:09.837Z,23.50
2018-02-15T16:23:37.268Z,23.15
2018-02-15T16:26:04.700Z,23.27
2018-02-15T16:28:32.932Z,23.73
2018-02-15T16:31:00.368Z,23.80
2018-02-15T16:33:27.795Z,21.65
2018-02-15T16:35:55.999Z,25.33
2018-02-15T16:38:23.432Z,24.77
2018-02-15T16:40:50.879Z,24.05
2018-02-15T16:43:18.343Z,23.73
2018-02-15T16:45:45.827Z,22.90
2018-02-15T16:48:13.286Z,22.48
2018-02-15T16:50:40.715Z,21.42
2018-02-15T16:53:08.161Z,24.60
2018-02-15T16:55:35.585Z,21.55
2018-02-15T16:58:03.024Z,21.30
2018-02-15T17:00:30.460Z,22.05
2018-02-15T17:02:58.657Z,25.50
2018-02-15T17:05:26.090Z,21.35
2018-02-15T17:07:53.524Z,22.80
2018-02-15T17:10:20.948Z,22.15
2018-02-15T17:12:48.395Z,22.10
2018-02-15T17:15:15.815Z,25.25
2018-02-15T17:17:43.267Z,29.85
2018-02-15T17:20:10.698Z,29.80
2018-02-15T17:22:38.115Z,26.60
2018-02-15T17:25:05.596Z,23.23
2018-02-15T17:27:33.800Z,23.90
2018-02-15T17:30:01.226Z,22.60
2018-02-15T17:32:28.723Z,23.80
2018-02-15T17:34:56.156Z,23.95
2018-02-15T17:37:23.583Z,22.92
2018-02-15T17:39:51.041Z,22.13
2018-02-15T17:42:18.498Z,22.33
2018-02-15T17:44:45.929Z,23.87
2018-02-15T17:47:13.374Z,22.27
2018-02-15T17:49:41.491Z,22.37
2018-02-15T17:52:08.906Z,21.37
2018-02-15T17:54:36.341Z,23.92
2018-02-15T17:57:03.782Z,25.90
2018-02-15T17:59:31.255Z,26.85
2018-02-15T18:01:58.779Z,23.33
2018-02-15T18:04:26.204Z,24.42
2018-02-15T18:06:53.635Z,24.90
2018-02-15T18:09:21.065Z,23.60
2018-02-15T18:11:48.519Z,22.52
2018-02-15T18:14:15.948Z,23.65
2018-02-15T18:16:44.467Z,24.92
2018-02-15T18:19:13.035Z,25.52
2018-02-15T18:21:41.236Z,25.65
2018-02-15T18:24:08.652Z,27.23
2018-02-15T18:26:36.848Z,24.25
2018-02-15T18:29:05.368Z,26.55
2018-02-15T18:31:33.832Z,26.62
2018-02-15T18:34:01.266Z,25.02
2018-02-15T18:36:28.711Z,25.75
2018-02-15T18:38:56.136Z,28.85
2018-02-15T18:41:23.650Z,24.65
2018-02-15T18:43:51.092Z,23.27
2018-02-15T18:46:19.460Z,21.98
2018-02-15T18:48:46.901Z,22.85
2018-02-15T18:51:15.311Z,24.73
2018-02-15T18:53:42.781Z,24.42
2018-02-15T18:56:10.210Z,24.10
2018-02-15T18:58:37.635Z,22.73
2018-02-15T19:01:05.059Z,23.48
2018-02-15T19:03:32.520Z,26.00
2018-02-15T19:05:59.949Z,24.10
2018-02-15T19:08:27.390Z,21.55
2018-02-15T19:10:54.816Z,23.10
2018-02-15T19:13:22.280Z,22.55
2018-02-15T19:15:49.728Z,20.95
2018-02-15T19:18:18.005Z,20.80
2018-02-15T19:20:46.265Z,20.77
2018-02-15T19:23:13.705Z,24.17
2018-02-15T19:25:41.175Z,21.02
2018-02-15T19:28:08.608Z,24.05
2018-02-15T19:30:36.051Z,22.33
2018-02-15T19:33:03.578Z,24.73
2018-02-15T19:35:31.060Z,25.10
2018-02-15T19:37:58.915Z,22.75
2018-02-15T19:40:27.333Z,22.35
2018-02-15T19:42:54.768Z,25.02
2018-02-15T19:45:22.263Z,22.20
2018-02-15T19:47:50.612Z,23.48
2018-02-15T19:50:18.265Z,22.52
2018-02-15T19:52:45.704Z,22.17
2018-02-15T19:55:13.969Z,23.77
2018-02-15T19:57:41.457Z,22.90
2018-02-15T20:00:08.907Z,19.90
2018-02-15T20:02:36.337Z,19.95
2018-02-15T20:05:03.799Z,22.20
2018-02-15T20:07:31.313Z,21.50
2018-02-15T20:09:58.780Z,21.23
2018-02-15T20:12:27.157Z,22.13
2018-02-15T20:14:54.608Z,22.00
2018-02-15T20:17:22.041Z,20.70
2018-02-15T20:19:55.180Z,21.20
2018-02-15T20:22:22.616Z,19.85
2018-02-15T20:24:50.230Z,21.85
2018-02-15T20:27:23.212Z,23.15
2018-02-15T20:29:50.647Z,26.23
2018-02-15T20:32:18.118Z,25.70
2018-02-15T20:34:45.621Z,24.87
2018-02-15T20:37:14.074Z,26.40
2018-02-15T20:39:47.376Z,27.55
2018-02-15T20:42:14.820Z,22.77
2018-02-15T20:44:42.256Z,23.52
2018-02-15T20:47:09.707Z,23.15
2018-02-15T20:49:42.743Z,21.95
2018-02-15T20:52:15.894Z,22.80
2018-02-15T20:54:48.905Z,23.40
2018-02-15T20:57:16.334Z,23.98
2018-02-15T20:59:43.767Z,23.95
2018-02-15T21:02:11.203Z,24.25
2018-02-15T21:04:38.630Z,24.75
2018-02-15T21:07:06.068Z,26.58
2018-02-15T21:09:33.499Z,25.90
2018-02-15T21:12:00.935Z,27.00
2018-02-15T21:14:28.368Z,20.85
2018-02-15T21:16:56.561Z,26.37
2018-02-15T21:19:24.027Z,24.83
2018-02-15T21:21:51.446Z,24.77
2018-02-15T21:24:18.888Z,24.40
2018-02-15T21:26:46.320Z,23.35
2018-02-15T21:29:13.746Z,23.92
2018-02-15T21:31:41.175Z,24.05
2018-02-15T21:34:09.378Z,23.00
2018-02-15T21:36:43.571Z,24.75
2018-02-15T21:39:16.970Z,26.92
2018-02-15T21:41:44.395Z,23.90
2018-02-15T21:44:11.836Z,26.08
2018-02-15T21:46:39.260Z,26.02
2018-02-15T21:49:06.999Z,24.45
2018-02-15T21:51:34.409Z,26.95
2018-02-15T21:54:01.836Z,29.23
2018-02-15T21:56:29.280Z,33.80
2018-02-15T21:58:56.713Z,34.33
2018-02-15T22:01:24.915Z,31.55
2018-02-15T22:03:52.342Z,33.90
2018-02-15T22:06:19.788Z,31.08
2018-02-15T22:08:47.212Z,31.55
2018-02-15T22:11:14.656Z,30.33
2018-02-15T22:13:42.087Z,32.63
2018-02-15T22:16:09.523Z,30.05
2018-02-15T22:18:37.716Z,30.27
2018-02-15T22:21:05.164Z,28.62
2018-02-15T22:23:32.583Z,46.58
2018-02-15T22:26:00.018Z,32.75
2018-02-15T22:28:27.446Z,30.40
2018-02-15T22:30:54.891Z,33.95
2018-02-15T22:33:22.327Z,40.65
2018-02-15T22:35:50.525Z,31.58
2018-02-15T22:38:17.951Z,27.30
2018-02-15T22:40:45.391Z,35.30
2018-02-15T22:43:12.928Z,31.73
2018-02-15T22:45:40.363Z,31.92
2018-02-15T22:48:07.801Z,30.45
2018-02-15T22:50:35.228Z,31.27
2018-02-15T22:53:02.668Z,30.27
2018-02-15T22:55:30.104Z,30.55
2018-02-15T22:57:57.553Z,31.85
2018-02-15T23:00:24.988Z,28.92
2018-02-15T23:02:52.431Z,28.65
2018-02-15T23:05:20.687Z,27.75
2018-02-15T23:07:48.114Z,28.90
2018-02-15T23:10:15.532Z,26.65
2018-02-15T23:12:43.031Z,26.62
2018-02-15T23:15:10.465Z,26.73
2018-02-15T23:17:37.891Z,27.42
2018-02-15T23:20:05.326Z,28.98
2018-02-15T23:22:33.518Z,28.00
2018-02-15T23:25:00.967Z,27.50
2018-02-15T23:27:29.543Z,26.67
2018-02-15T23:29:57.755Z,26.00
2018-02-15T23:32:25.193Z,26.92
2018-02-15T23:34:52.623Z,29.12
2018-02-15T23:37:20.057Z,28.67
2018-02-15T23:39:47.499Z,29.08
2018-02-15T23:42:14.924Z,29.63
2018-02-15T23:44:42.355Z,30.33
2018-02-15T23:47:09.798Z,31.02
2018-02-15T23:49:37.235Z,30.10
2018-02-15T23:52:04.664Z,30.65
2018-02-15T23:54:32.096Z,27.37
2018-02-15T23:57:00.304Z,28.02
2018-02-15T23:59:27.729Z,26.85
